createdAt,value
2019-01-31T00:03:52.677Z,5.37
2019-01-31T00:09:33.704Z,5.53
2019-01-31T00:15:03.317Z,5.40
2019-01-31T00:20:50.339Z,5.85
2019-01-31T00:26:20.422Z,6.45
2019-01-31T00:32:02.189Z,6.28
2019-01-31T00:37:27.290Z,5.78
2019-01-31T00:43:19.604Z,5.95
2019-01-31T00:48:37.710Z,6.28
2019-01-31T00:54:23.002Z,6.22
2019-01-31T00:59:55.126Z,6.47
2019-01-31T01:05:51.437Z,6.55
2019-01-31T01:11:33.718Z,6.60
2019-01-31T01:17:04.630Z,6.42
2019-01-31T01:22:25.723Z,6.12
2019-01-31T01:28:13.951Z,6.20
2019-01-31T01:33:55.179Z,6.78
2019-01-31T01:39:23.097Z,6.10
2019-01-31T01:44:45.264Z,6.47
2019-01-31T01:49:54.111Z,7.67
2019-01-31T01:55:06.074Z,7.12
2019-01-31T02:00:57.700Z,7.22
2019-01-31T02:06:47.454Z,6.53
2019-01-31T02:12:37.091Z,6.53
2019-01-31T02:17:48.404Z,6.80
2019-01-31T02:23:17.188Z,6.70
2019-01-31T02:28:40.537Z,7.53
2019-01-31T02:34:22.208Z,8.00
2019-01-31T02:40:13.522Z,6.70
2019-01-31T02:45:52.104Z,6.92
2019-01-31T02:51:38.793Z,6.65
2019-01-31T02:57:03.573Z,7.10
2019-01-31T03:02:30.744Z,7.47
2019-01-31T03:08:18.865Z,8.38
2019-01-31T03:13:44.683Z,7.22
2019-01-31T03:19:14.641Z,7.97
2019-01-31T03:24:45.835Z,8.00
2019-01-31T03:30:24.982Z,8.40
2019-01-31T03:35:58.872Z,8.63
2019-01-31T03:41:33.408Z,7.80
2019-01-31T03:46:58.521Z,8.53
2019-01-31T03:52:45.060Z,8.98
2019-01-31T03:58:40.976Z,8.45
2019-01-31T04:04:03.098Z,9.23
2019-01-31T04:09:07.971Z,8.50
2019-01-31T04:14:10.001Z,8.53
2019-01-31T04:19:12.293Z,8.40
2019-01-31T04:24:14.324Z,8.05
2019-01-31T04:29:16.352Z,7.12
2019-01-31T04:34:18.334Z,7.50
2019-01-31T04:39:20.316Z,7.33
2019-01-31T04:44:22.366Z,7.60
2019-01-31T04:49:24.376Z,7.58
2019-01-31T04:54:26.381Z,7.55
2019-01-31T04:59:28.327Z,7.97
2019-01-31T05:04:30.610Z,6.95
2019-01-31T05:09:32.678Z,6.67
2019-01-31T05:14:34.650Z,6.78
2019-01-31T05:19:36.704Z,7.40
2019-01-31T05:24:38.722Z,6.42
2019-01-31T05:29:40.758Z,6.70
2019-01-31T05:34:42.714Z,5.55
2019-01-31T05:39:44.671Z,6.05
2019-01-31T05:44:46.672Z,6.15
2019-01-31T05:49:48.728Z,6.12
2019-01-31T05:54:50.762Z,5.37
2019-01-31T05:59:52.765Z,4.92
2019-01-31T06:04:54.837Z,5.05
2019-01-31T06:09:56.834Z,5.20
2019-01-31T06:14:58.866Z,4.95
2019-01-31T06:20:01.180Z,5.90
2019-01-31T06:25:04.620Z,5.60
2019-01-31T06:30:07.997Z,5.97
2019-01-31T06:35:10.420Z,6.42
2019-01-31T06:40:14.734Z,5.58
2019-01-31T06:45:18.181Z,6.03
2019-01-31T06:50:20.230Z,5.90
2019-01-31T06:55:22.484Z,5.15
2019-01-31T07:00:24.509Z,5.58
2019-01-31T07:05:26.498Z,5.75
2019-01-31T07:10:28.480Z,5.03
2019-01-31T07:15:30.760Z,4.55
2019-01-31T07:20:32.853Z,4.33
2019-01-31T07:25:35.129Z,4.53
2019-01-31T07:30:37.117Z,5.50
2019-01-31T07:35:39.099Z,5.08
2019-01-31T07:40:41.075Z,5.00
2019-01-31T07:45:43.091Z,3.92
2019-01-31T07:50:45.077Z,4.35
2019-01-31T07:55:48.194Z,4.10
2019-01-31T08:00:50.165Z,4.70
2019-01-31T08:05:52.202Z,4.05
2019-01-31T08:10:54.207Z,4.20
2019-01-31T08:15:56.167Z,4.00
2019-01-31T08:20:58.134Z,4.08
2019-01-31T08:26:00.178Z,5.00
2019-01-31T08:31:02.155Z,3.98
2019-01-31T08:36:04.253Z,3.98
2019-01-31T08:41:06.271Z,4.45
2019-01-31T08:46:08.491Z,5.33
2019-01-31T08:51:10.515Z,5.28
2019-01-31T08:56:12.548Z,4.45
2019-01-31T09:01:15.720Z,4.50
2019-01-31T09:06:18.467Z,4.17
2019-01-31T09:11:20.484Z,3.95
2019-01-31T09:16:22.522Z,4.08
2019-01-31T09:21:50.257Z,4.60
2019-01-31T09:27:19.496Z,4.50
2019-01-31T09:32:54.210Z,4.45
2019-01-31T09:38:49.915Z,4.50
2019-01-31T09:44:48.787Z,4.70
2019-01-31T09:50:16.271Z,4.67
2019-01-31T09:56:06.021Z,4.03
2019-01-31T10:01:52.642Z,4.30
2019-01-31T10:07:25.090Z,5.28
2019-01-31T10:12:49.937Z,4.95
2019-01-31T10:18:22.592Z,4.67
2019-01-31T10:24:05.130Z,4.45
2019-01-31T10:29:48.718Z,4.42
2019-01-31T10:35:31.184Z,4.20
2019-01-31T10:40:59.709Z,4.42
2019-01-31T10:46:41.716Z,4.67
2019-01-31T10:52:15.000Z,4.30
2019-01-31T10:57:47.056Z,4.58
2019-01-31T11:03:16.747Z,4.80
2019-01-31T11:09:18.454Z,4.30
2019-01-31T11:15:17.056Z,4.35
2019-01-31T11:20:59.724Z,4.37
2019-01-31T11:26:40.221Z,4.72
2019-01-31T11:32:19.858Z,4.75
2019-01-31T11:37:53.854Z,4.28
2019-01-31T11:43:43.686Z,4.70
2019-01-31T11:49:13.779Z,4.60
2019-01-31T11:55:09.575Z,4.50
2019-01-31T12:00:13.800Z,5.17
2019-01-31T12:05:15.937Z,4.58
2019-01-31T12:10:18.220Z,4.47
2019-01-31T12:15:20.323Z,5.12
2019-01-31T12:20:22.357Z,4.62
2019-01-31T12:25:24.389Z,5.22
2019-01-31T12:30:26.755Z,5.62
2019-01-31T12:35:29.798Z,5.42
2019-01-31T12:40:32.092Z,6.85
2019-01-31T12:45:34.151Z,7.15
2019-01-31T12:50:36.263Z,6.67
2019-01-31T12:55:38.306Z,6.92
2019-01-31T13:00:40.413Z,7.37
2019-01-31T13:05:42.754Z,8.30
2019-01-31T13:10:44.779Z,8.10
2019-01-31T13:15:46.819Z,8.38
2019-01-31T13:20:48.829Z,9.75
2019-01-31T13:25:50.945Z,9.10
2019-01-31T13:30:52.958Z,9.80
2019-01-31T13:35:55.041Z,9.20
2019-01-31T13:40:57.012Z,9.88
2019-01-31T13:45:59.077Z,8.10
2019-01-31T13:51:03.087Z,8.70
2019-01-31T13:56:05.966Z,10.05
2019-01-31T14:01:08.036Z,9.45
2019-01-31T14:06:10.032Z,7.92
2019-01-31T14:11:12.007Z,7.72
2019-01-31T14:16:14.308Z,7.22
2019-01-31T14:21:16.348Z,7.10
2019-01-31T14:26:18.361Z,6.30
2019-01-31T14:31:21.434Z,7.20
2019-01-31T14:36:23.592Z,7.05
2019-01-31T14:41:25.594Z,6.97
2019-01-31T14:46:27.873Z,6.78
2019-01-31T14:51:29.986Z,6.22
2019-01-31T14:56:32.053Z,6.60
2019-01-31T15:01:34.144Z,6.28
2019-01-31T15:06:36.240Z,6.10
2019-01-31T15:11:38.621Z,6.10
2019-01-31T15:16:40.953Z,6.25
2019-01-31T15:21:42.982Z,6.67
2019-01-31T15:26:45.009Z,6.95
2019-01-31T15:31:47.347Z,5.67
2019-01-31T15:36:49.498Z,5.87
2019-01-31T15:41:51.583Z,6.10
2019-01-31T15:46:53.920Z,6.90
2019-01-31T15:51:56.044Z,5.62
2019-01-31T15:56:58.136Z,6.00
2019-01-31T16:02:00.196Z,5.55
2019-01-31T16:07:02.608Z,5.85
2019-01-31T16:12:04.713Z,7.42
2019-01-31T16:17:06.724Z,7.08
2019-01-31T16:22:08.842Z,6.65
2019-01-31T16:27:13.078Z,7.22
2019-01-31T16:32:15.109Z,9.90
2019-01-31T16:37:17.460Z,7.78
2019-01-31T16:42:19.522Z,7.47
2019-01-31T16:47:21.506Z,7.25
2019-01-31T16:52:23.552Z,7.15
2019-01-31T16:57:25.624Z,7.17
2019-01-31T17:02:27.772Z,7.62
2019-01-31T17:07:29.752Z,8.05
2019-01-31T17:12:31.816Z,7.42
2019-01-31T17:17:33.977Z,8.33
2019-01-31T17:22:35.981Z,8.53
2019-01-31T17:27:37.980Z,8.05
2019-01-31T17:32:40.390Z,8.50
2019-01-31T17:37:42.412Z,9.18
2019-01-31T17:42:44.423Z,8.35
2019-01-31T17:47:46.433Z,8.05
2019-01-31T17:52:48.761Z,7.65
2019-01-31T17:57:50.864Z,7.83
2019-01-31T18:02:52.895Z,7.67
2019-01-31T18:07:54.903Z,7.10
2019-01-31T18:12:56.906Z,7.60
2019-01-31T18:17:58.902Z,8.48
2019-01-31T18:23:01.098Z,6.97
2019-01-31T18:28:03.330Z,7.70
2019-01-31T18:33:05.370Z,7.65
2019-01-31T18:38:07.567Z,7.80
2019-01-31T18:43:09.720Z,7.05
2019-01-31T18:48:13.110Z,8.13
2019-01-31T18:53:15.124Z,7.90
2019-01-31T18:58:17.411Z,8.93
2019-01-31T19:03:20.804Z,8.15
2019-01-31T19:08:23.036Z,8.73
2019-01-31T19:45:17.953Z,9.33
2019-01-31T21:30:24.546Z,9.30
2019-01-31T22:48:07.508Z,8.13
2019-01-31T23:38:27.995Z,8.18
2019-01-31T23:51:26.849Z,7.92
